sensor_id;sensor_type;location;lat;lon;timestamp;P1;durP1;ratioP1;P2;durP2;ratioP2
65275;SDS011;51875;49.994;14.052;2023-04-07T00:00:11;20.02;;;9.75;;
65275;SDS011;51875;49.994;14.052;2023-04-07T00:01:42;21.15;;;10.35;;
65275;SDS011;51875;49.994;14.052;2023-04-07T00:02:58;22.70;;;9.98;;
65275;SDS011;51875;49.994;14.052;2023-04-07T00:04:16;15.70;;;9.25;;
65275;SDS011;51875;49.994;14.052;2023-04-07T00:05:31;17.27;;;9.55;;
65275;SDS011;51875;49.994;14.052;2023-04-07T00:06:47;22.35;;;9.75;;
65275;SDS011;51875;49.994;14.052;2023-04-07T00:08:03;15.95;;;9.52;;
65275;SDS011;51875;49.994;14.052;2023-04-07T00:09:18;21.73;;;10.52;;
65275;SDS011;51875;49.994;14.052;2023-04-07T00:10:34;21.33;;;10.43;;
65275;SDS011;51875;49.994;14.052;2023-04-07T00:11:50;20.35;;;10.10;;
65275;SDS011;51875;49.994;14.052;2023-04-07T00:13:06;17.27;;;9.77;;
65275;SDS011;51875;49.994;14.052;2023-04-07T00:14:22;19.00;;;10.52;;
65275;SDS011;51875;49.994;14.052;2023-04-07T00:15:37;23.55;;;10.90;;
65275;SDS011;51875;49.994;14.052;2023-04-07T00:16:53;18.02;;;10.05;;
65275;SDS011;51875;49.994;14.052;2023-04-07T00:18:09;20.40;;;11.00;;
65275;SDS011;51875;49.994;14.052;2023-04-07T00:19:24;21.88;;;10.02;;
65275;SDS011;51875;49.994;14.052;2023-04-07T00:20:40;19.92;;;10.38;;
65275;SDS011;51875;49.994;14.052;2023-04-07T00:21:56;20.30;;;11.60;;
65275;SDS011;51875;49.994;14.052;2023-04-07T00:23:11;17.25;;;10.45;;
65275;SDS011;51875;49.994;14.052;2023-04-07T00:24:27;21.00;;;11.25;;
65275;SDS011;51875;49.994;14.052;2023-04-07T00:25:43;19.33;;;9.95;;
65275;SDS011;51875;49.994;14.052;2023-04-07T00:26:58;19.02;;;10.75;;
65275;SDS011;51875;49.994;14.052;2023-04-07T00:28:14;20.08;;;10.07;;
65275;SDS011;51875;49.994;14.052;2023-04-07T00:29:29;18.25;;;9.05;;
65275;SDS011;51875;49.994;14.052;2023-04-07T00:30:45;17.25;;;9.93;;
65275;SDS011;51875;49.994;14.052;2023-04-07T00:32:00;18.98;;;10.02;;
65275;SDS011;51875;49.994;14.052;2023-04-07T00:33:16;18.13;;;9.52;;
65275;SDS011;51875;49.994;14.052;2023-04-07T00:34:32;16.52;;;9.38;;
65275;SDS011;51875;49.994;14.052;2023-04-07T00:35:47;18.98;;;9.90;;
65275;SDS011;51875;49.994;14.052;2023-04-07T00:37:02;17.60;;;9.73;;
65275;SDS011;51875;49.994;14.052;2023-04-07T00:38:20;16.65;;;9.38;;
65275;SDS011;51875;49.994;14.052;2023-04-07T00:39:36;19.63;;;9.88;;
65275;SDS011;51875;49.994;14.052;2023-04-07T00:40:58;16.95;;;8.95;;
65275;SDS011;51875;49.994;14.052;2023-04-07T00:42:13;19.48;;;9.40;;
65275;SDS011;51875;49.994;14.052;2023-04-07T00:43:29;18.60;;;10.40;;
65275;SDS011;51875;49.994;14.052;2023-04-07T00:44:45;16.77;;;9.13;;
65275;SDS011;51875;49.994;14.052;2023-04-07T00:46:00;20.33;;;9.57;;
65275;SDS011;51875;49.994;14.052;2023-04-07T00:47:16;19.33;;;10.23;;
65275;SDS011;51875;49.994;14.052;2023-04-07T00:48:32;18.67;;;9.05;;
65275;SDS011;51875;49.994;14.052;2023-04-07T00:49:47;17.17;;;9.15;;
65275;SDS011;51875;49.994;14.052;2023-04-07T00:51:03;17.77;;;9.27;;
65275;SDS011;51875;49.994;14.052;2023-04-07T00:52:19;19.33;;;9.73;;
65275;SDS011;51875;49.994;14.052;2023-04-07T00:53:42;15.35;;;9.35;;
65275;SDS011;51875;49.994;14.052;2023-04-07T00:54:58;19.45;;;9.90;;
65275;SDS011;51875;49.994;14.052;2023-04-07T00:56:14;20.00;;;9.77;;
65275;SDS011;51875;49.994;14.052;2023-04-07T00:57:30;18.65;;;9.43;;
65275;SDS011;51875;49.994;14.052;2023-04-07T00:58:45;18.60;;;9.38;;
65275;SDS011;51875;49.994;14.052;2023-04-07T01:00:01;21.00;;;9.43;;
65275;SDS011;51875;49.994;14.052;2023-04-07T01:01:20;18.63;;;9.57;;
65275;SDS011;51875;49.994;14.052;2023-04-07T01:02:42;16.80;;;9.02;;
65275;SDS011;51875;49.994;14.052;2023-04-07T01:04:08;16.63;;;8.73;;
65275;SDS011;51875;49.994;14.052;2023-04-07T01:05:36;18.13;;;8.93;;
65275;SDS011;51875;49.994;14.052;2023-04-07T01:06:58;18.77;;;9.10;;
65275;SDS011;51875;49.994;14.052;2023-04-07T01:08:20;14.95;;;8.27;;
65275;SDS011;51875;49.994;14.052;2023-04-07T01:09:53;17.23;;;9.20;;
65275;SDS011;51875;49.994;14.052;2023-04-07T01:11:27;19.08;;;9.50;;
65275;SDS011;51875;49.994;14.052;2023-04-07T01:13:02;17.35;;;8.93;;
65275;SDS011;51875;49.994;14.052;2023-04-07T01:14:21;18.13;;;8.48;;
65275;SDS011;51875;49.994;14.052;2023-04-07T01:15:38;16.40;;;9.18;;
65275;SDS011;51875;49.994;14.052;2023-04-07T01:16:55;14.65;;;8.07;;
65275;SDS011;51875;49.994;14.052;2023-04-07T01:18:23;17.63;;;9.63;;
65275;SDS011;51875;49.994;14.052;2023-04-07T01:19:47;16.85;;;9.65;;
65275;SDS011;51875;49.994;14.052;2023-04-07T01:21:13;17.00;;;9.13;;
65275;SDS011;51875;49.994;14.052;2023-04-07T01:22:39;18.48;;;9.48;;
65275;SDS011;51875;49.994;14.052;2023-04-07T01:24:20;17.52;;;8.80;;
65275;SDS011;51875;49.994;14.052;2023-04-07T01:27:37;15.10;;;8.30;;
65275;SDS011;51875;49.994;14.052;2023-04-07T01:29:43;19.23;;;8.75;;
65275;SDS011;51875;49.994;14.052;2023-04-07T01:30:52;17.92;;;8.60;;
65275;SDS011;51875;49.994;14.052;2023-04-07T01:32:09;15.77;;;8.45;;
65275;SDS011;51875;49.994;14.052;2023-04-07T01:33:26;18.38;;;8.57;;
65275;SDS011;51875;49.994;14.052;2023-04-07T01:34:47;15.02;;;8.73;;
65275;SDS011;51875;49.994;14.052;2023-04-07T01:36:05;15.85;;;9.05;;
65275;SDS011;51875;49.994;14.052;2023-04-07T01:37:22;18.55;;;9.23;;
65275;SDS011;51875;49.994;14.052;2023-04-07T01:38:41;13.43;;;8.20;;
65275;SDS011;51875;49.994;14.052;2023-04-07T01:39:58;14.02;;;8.00;;
65275;SDS011;51875;49.994;14.052;2023-04-07T01:41:14;18.73;;;9.38;;
65275;SDS011;51875;49.994;14.052;2023-04-07T01:42:31;17.27;;;9.18;;
65275;SDS011;51875;49.994;14.052;2023-04-07T01:43:47;19.25;;;9.70;;
65275;SDS011;51875;49.994;14.052;2023-04-07T01:45:03;16.30;;;8.77;;
65275;SDS011;51875;49.994;14.052;2023-04-07T01:46:21;17.27;;;9.48;;
65275;SDS011;51875;49.994;14.052;2023-04-07T01:47:36;19.17;;;9.80;;
65275;SDS011;51875;49.994;14.052;2023-04-07T01:48:53;17.98;;;9.68;;
65275;SDS011;51875;49.994;14.052;2023-04-07T01:50:10;15.00;;;8.90;;
65275;SDS011;51875;49.994;14.052;2023-04-07T01:51:27;20.67;;;9.82;;
65275;SDS011;51875;49.994;14.052;2023-04-07T01:52:44;16.15;;;9.35;;
65275;SDS011;51875;49.994;14.052;2023-04-07T01:54:00;19.25;;;10.20;;
65275;SDS011;51875;49.994;14.052;2023-04-07T01:55:17;19.48;;;9.82;;
65275;SDS011;51875;49.994;14.052;2023-04-07T01:56:32;21.30;;;9.88;;
65275;SDS011;51875;49.994;14.052;2023-04-07T01:57:48;19.52;;;9.93;;
65275;SDS011;51875;49.994;14.052;2023-04-07T01:59:04;18.70;;;10.18;;
65275;SDS011;51875;49.994;14.052;2023-04-07T02:00:20;19.13;;;9.90;;
65275;SDS011;51875;49.994;14.052;2023-04-07T02:01:36;20.30;;;10.13;;
65275;SDS011;51875;49.994;14.052;2023-04-07T02:02:53;20.58;;;9.63;;
65275;SDS011;51875;49.994;14.052;2023-04-07T02:05:39;15.73;;;9.02;;
65275;SDS011;51875;49.994;14.052;2023-04-07T02:07:00;18.85;;;9.63;;
65275;SDS011;51875;49.994;14.052;2023-04-07T02:08:21;18.50;;;9.27;;
65275;SDS011;51875;49.994;14.052;2023-04-07T02:09:41;19.92;;;9.95;;
65275;SDS011;51875;49.994;14.052;2023-04-07T02:10:57;19.77;;;9.05;;
65275;SDS011;51875;49.994;14.052;2023-04-07T02:12:15;19.27;;;9.60;;
65275;SDS011;51875;49.994;14.052;2023-04-07T02:13:31;19.10;;;9.65;;
65275;SDS011;51875;49.994;14.052;2023-04-07T02:14:51;18.08;;;9.02;;
65275;SDS011;51875;49.994;14.052;2023-04-07T02:16:08;20.83;;;9.63;;
65275;SDS011;51875;49.994;14.052;2023-04-07T02:17:24;15.32;;;9.48;;
65275;SDS011;51875;49.994;14.052;2023-04-07T02:18:43;18.17;;;9.73;;
65275;SDS011;51875;49.994;14.052;2023-04-07T02:20:00;16.08;;;9.73;;
65275;SDS011;51875;49.994;14.052;2023-04-07T02:21:18;22.40;;;10.95;;
65275;SDS011;51875;49.994;14.052;2023-04-07T02:22:34;18.13;;;10.05;;
65275;SDS011;51875;49.994;14.052;2023-04-07T02:23:51;17.83;;;9.52;;
65275;SDS011;51875;49.994;14.052;2023-04-07T02:25:23;19.55;;;9.63;;
65275;SDS011;51875;49.994;14.052;2023-04-07T02:26:42;19.92;;;9.60;;
65275;SDS011;51875;49.994;14.052;2023-04-07T02:27:58;20.10;;;10.15;;
65275;SDS011;51875;49.994;14.052;2023-04-07T02:29:15;17.02;;;9.60;;
65275;SDS011;51875;49.994;14.052;2023-04-07T02:30:31;20.55;;;9.00;;
65275;SDS011;51875;49.994;14.052;2023-04-07T02:31:47;18.55;;;8.82;;
65275;SDS011;51875;49.994;14.052;2023-04-07T02:33:02;13.65;;;8.50;;
65275;SDS011;51875;49.994;14.052;2023-04-07T02:34:18;17.08;;;7.93;;
65275;SDS011;51875;49.994;14.052;2023-04-07T02:35:33;19.13;;;9.10;;
65275;SDS011;51875;49.994;14.052;2023-04-07T02:36:49;18.65;;;9.93;;
65275;SDS011;51875;49.994;14.052;2023-04-07T02:38:05;18.27;;;9.40;;
65275;SDS011;51875;49.994;14.052;2023-04-07T02:39:20;17.70;;;8.98;;
65275;SDS011;51875;49.994;14.052;2023-04-07T02:40:36;18.15;;;9.13;;
65275;SDS011;51875;49.994;14.052;2023-04-07T02:41:51;16.67;;;8.98;;
65275;SDS011;51875;49.994;14.052;2023-04-07T02:43:07;17.77;;;9.13;;
65275;SDS011;51875;49.994;14.052;2023-04-07T02:44:22;15.98;;;8.93;;
65275;SDS011;51875;49.994;14.052;2023-04-07T02:45:38;17.23;;;8.80;;
65275;SDS011;51875;49.994;14.052;2023-04-07T02:46:53;16.92;;;9.05;;
65275;SDS011;51875;49.994;14.052;2023-04-07T02:48:09;15.50;;;8.85;;
65275;SDS011;51875;49.994;14.052;2023-04-07T02:49:25;15.40;;;8.90;;
65275;SDS011;51875;49.994;14.052;2023-04-07T02:50:41;18.70;;;9.82;;
65275;SDS011;51875;49.994;14.052;2023-04-07T02:51:56;20.50;;;10.30;;
65275;SDS011;51875;49.994;14.052;2023-04-07T02:53:12;16.75;;;9.50;;
65275;SDS011;51875;49.994;14.052;2023-04-07T02:54:27;19.70;;;9.48;;
65275;SDS011;51875;49.994;14.052;2023-04-07T02:55:43;18.80;;;9.38;;
65275;SDS011;51875;49.994;14.052;2023-04-07T02:56:58;15.93;;;9.63;;
65275;SDS011;51875;49.994;14.052;2023-04-07T02:58:15;17.92;;;10.07;;
65275;SDS011;51875;49.994;14.052;2023-04-07T02:59:30;17.48;;;9.80;;
65275;SDS011;51875;49.994;14.052;2023-04-07T03:00:47;17.67;;;9.07;;
65275;SDS011;51875;49.994;14.052;2023-04-07T03:02:03;19.45;;;9.68;;
65275;SDS011;51875;49.994;14.052;2023-04-07T03:03:18;19.42;;;9.60;;
65275;SDS011;51875;49.994;14.052;2023-04-07T03:04:34;18.73;;;9.55;;
65275;SDS011;51875;49.994;14.052;2023-04-07T03:05:50;21.42;;;9.75;;
65275;SDS011;51875;49.994;14.052;2023-04-07T03:07:05;18.23;;;10.15;;
65275;SDS011;51875;49.994;14.052;2023-04-07T03:08:21;19.17;;;9.82;;
65275;SDS011;51875;49.994;14.052;2023-04-07T03:09:37;18.20;;;9.30;;
65275;SDS011;51875;49.994;14.052;2023-04-07T03:10:52;18.52;;;9.65;;
65275;SDS011;51875;49.994;14.052;2023-04-07T03:12:08;13.90;;;8.93;;
65275;SDS011;51875;49.994;14.052;2023-04-07T03:13:23;19.05;;;10.23;;
65275;SDS011;51875;49.994;14.052;2023-04-07T03:14:39;16.35;;;9.57;;
65275;SDS011;51875;49.994;14.052;2023-04-07T03:15:55;16.65;;;9.35;;
65275;SDS011;51875;49.994;14.052;2023-04-07T03:17:11;17.45;;;9.25;;
65275;SDS011;51875;49.994;14.052;2023-04-07T03:18:26;20.63;;;10.90;;
65275;SDS011;51875;49.994;14.052;2023-04-07T03:19:42;18.85;;;10.05;;
65275;SDS011;51875;49.994;14.052;2023-04-07T03:20:57;18.98;;;9.85;;
65275;SDS011;51875;49.994;14.052;2023-04-07T03:22:13;18.50;;;10.00;;
65275;SDS011;51875;49.994;14.052;2023-04-07T03:23:29;22.90;;;9.65;;
65275;SDS011;51875;49.994;14.052;2023-04-07T03:24:44;21.70;;;9.88;;
65275;SDS011;51875;49.994;14.052;2023-04-07T03:26:00;21.60;;;10.32;;
65275;SDS011;51875;49.994;14.052;2023-04-07T03:27:16;23.13;;;11.05;;
65275;SDS011;51875;49.994;14.052;2023-04-07T03:28:32;18.30;;;10.00;;
65275;SDS011;51875;49.994;14.052;2023-04-07T03:29:47;18.90;;;10.55;;
65275;SDS011;51875;49.994;14.052;2023-04-07T03:31:05;21.63;;;10.75;;
65275;SDS011;51875;49.994;14.052;2023-04-07T03:32:21;19.73;;;10.73;;
65275;SDS011;51875;49.994;14.052;2023-04-07T03:33:36;21.17;;;10.60;;
65275;SDS011;51875;49.994;14.052;2023-04-07T03:34:52;20.95;;;11.10;;
65275;SDS011;51875;49.994;14.052;2023-04-07T03:36:07;17.38;;;10.25;;
65275;SDS011;51875;49.994;14.052;2023-04-07T03:37:23;19.00;;;11.10;;
65275;SDS011;51875;49.994;14.052;2023-04-07T03:38:39;19.70;;;10.45;;
65275;SDS011;51875;49.994;14.052;2023-04-07T03:39:54;19.15;;;10.40;;
65275;SDS011;51875;49.994;14.052;2023-04-07T03:41:10;19.92;;;9.50;;
65275;SDS011;51875;49.994;14.052;2023-04-07T03:42:26;18.75;;;9.85;;
65275;SDS011;51875;49.994;14.052;2023-04-07T03:43:41;19.15;;;9.80;;
65275;SDS011;51875;49.994;14.052;2023-04-07T03:44:57;18.52;;;10.18;;
65275;SDS011;51875;49.994;14.052;2023-04-07T03:46:12;20.30;;;10.50;;
65275;SDS011;51875;49.994;14.052;2023-04-07T03:47:28;15.88;;;8.98;;
65275;SDS011;51875;49.994;14.052;2023-04-07T03:48:43;19.02;;;9.75;;
65275;SDS011;51875;49.994;14.052;2023-04-07T03:49:59;15.75;;;9.73;;
65275;SDS011;51875;49.994;14.052;2023-04-07T03:51:15;16.20;;;9.50;;
65275;SDS011;51875;49.994;14.052;2023-04-07T03:52:31;18.38;;;9.13;;
65275;SDS011;51875;49.994;14.052;2023-04-07T03:53:47;15.40;;;9.18;;
65275;SDS011;51875;49.994;14.052;2023-04-07T03:55:02;19.92;;;9.50;;
65275;SDS011;51875;49.994;14.052;2023-04-07T03:56:18;17.55;;;9.35;;
65275;SDS011;51875;49.994;14.052;2023-04-07T03:57:34;17.83;;;9.60;;
65275;SDS011;51875;49.994;14.052;2023-04-07T03:58:50;16.83;;;9.77;;
65275;SDS011;51875;49.994;14.052;2023-04-07T04:00:06;18.63;;;9.43;;
65275;SDS011;51875;49.994;14.052;2023-04-07T04:01:22;16.17;;;9.25;;
65275;SDS011;51875;49.994;14.052;2023-04-07T04:02:38;19.58;;;9.82;;
65275;SDS011;51875;49.994;14.052;2023-04-07T04:03:53;19.60;;;9.95;;
65275;SDS011;51875;49.994;14.052;2023-04-07T04:05:09;18.67;;;9.40;;
65275;SDS011;51875;49.994;14.052;2023-04-07T04:06:25;18.33;;;8.98;;
65275;SDS011;51875;49.994;14.052;2023-04-07T04:07:41;18.30;;;10.60;;
65275;SDS011;51875;49.994;14.052;2023-04-07T04:08:56;16.70;;;9.80;;
65275;SDS011;51875;49.994;14.052;2023-04-07T04:10:12;20.40;;;10.73;;
65275;SDS011;51875;49.994;14.052;2023-04-07T04:11:27;23.55;;;10.60;;
65275;SDS011;51875;49.994;14.052;2023-04-07T04:12:43;18.55;;;10.30;;
65275;SDS011;51875;49.994;14.052;2023-04-07T04:14:00;16.25;;;8.82;;
65275;SDS011;51875;49.994;14.052;2023-04-07T04:15:15;17.33;;;9.25;;
65275;SDS011;51875;49.994;14.052;2023-04-07T04:16:31;17.15;;;9.02;;
65275;SDS011;51875;49.994;14.052;2023-04-07T04:17:46;18.23;;;9.55;;
65275;SDS011;51875;49.994;14.052;2023-04-07T04:19:02;18.08;;;9.55;;
65275;SDS011;51875;49.994;14.052;2023-04-07T04:20:18;16.70;;;9.57;;
65275;SDS011;51875;49.994;14.052;2023-04-07T04:21:33;19.90;;;9.38;;
65275;SDS011;51875;49.994;14.052;2023-04-07T04:22:49;19.73;;;9.18;;
65275;SDS011;51875;49.994;14.052;2023-04-07T04:24:04;20.80;;;10.75;;
65275;SDS011;51875;49.994;14.052;2023-04-07T04:25:20;17.33;;;9.73;;
65275;SDS011;51875;49.994;14.052;2023-04-07T04:26:36;14.38;;;8.85;;
65275;SDS011;51875;49.994;14.052;2023-04-07T04:27:51;16.80;;;9.70;;
65275;SDS011;51875;49.994;14.052;2023-04-07T04:29:07;15.02;;;9.80;;
65275;SDS011;51875;49.994;14.052;2023-04-07T04:30:22;17.42;;;9.50;;
65275;SDS011;51875;49.994;14.052;2023-04-07T04:31:38;17.85;;;9.73;;
65275;SDS011;51875;49.994;14.052;2023-04-07T04:32:53;19.60;;;9.95;;
65275;SDS011;51875;49.994;14.052;2023-04-07T04:34:09;16.40;;;9.00;;
65275;SDS011;51875;49.994;14.052;2023-04-07T04:35:25;19.35;;;10.70;;
65275;SDS011;51875;49.994;14.052;2023-04-07T04:36:41;19.60;;;9.60;;
65275;SDS011;51875;49.994;14.052;2023-04-07T04:37:56;19.13;;;9.88;;
65275;SDS011;51875;49.994;14.052;2023-04-07T04:39:12;21.35;;;10.13;;
65275;SDS011;51875;49.994;14.052;2023-04-07T04:40:28;17.27;;;9.60;;
65275;SDS011;51875;49.994;14.052;2023-04-07T04:41:44;22.33;;;10.38;;
65275;SDS011;51875;49.994;14.052;2023-04-07T04:43:00;16.45;;;9.85;;
65275;SDS011;51875;49.994;14.052;2023-04-07T04:44:15;16.40;;;9.05;;
65275;SDS011;51875;49.994;14.052;2023-04-07T04:45:31;19.63;;;10.30;;
65275;SDS011;51875;49.994;14.052;2023-04-07T04:46:47;17.90;;;10.07;;
65275;SDS011;51875;49.994;14.052;2023-04-07T04:48:03;21.92;;;10.35;;
65275;SDS011;51875;49.994;14.052;2023-04-07T04:49:19;17.17;;;9.20;;
65275;SDS011;51875;49.994;14.052;2023-04-07T04:50:34;18.50;;;10.45;;
65275;SDS011;51875;49.994;14.052;2023-04-07T04:51:50;19.67;;;10.13;;
65275;SDS011;51875;49.994;14.052;2023-04-07T04:53:06;17.85;;;10.40;;
65275;SDS011;51875;49.994;14.052;2023-04-07T04:54:21;20.58;;;10.35;;
65275;SDS011;51875;49.994;14.052;2023-04-07T04:55:37;20.13;;;10.77;;
65275;SDS011;51875;49.994;14.052;2023-04-07T04:56:54;19.95;;;10.88;;
65275;SDS011;51875;49.994;14.052;2023-04-07T04:58:11;18.75;;;11.05;;
65275;SDS011;51875;49.994;14.052;2023-04-07T04:59:27;20.40;;;10.80;;
65275;SDS011;51875;49.994;14.052;2023-04-07T05:00:42;21.30;;;10.35;;
65275;SDS011;51875;49.994;14.052;2023-04-07T05:01:58;19.17;;;10.50;;
65275;SDS011;51875;49.994;14.052;2023-04-07T05:03:13;19.08;;;11.25;;
65275;SDS011;51875;49.994;14.052;2023-04-07T05:04:29;19.70;;;10.80;;
65275;SDS011;51875;49.994;14.052;2023-04-07T05:05:46;21.08;;;10.68;;
65275;SDS011;51875;49.994;14.052;2023-04-07T05:07:02;24.65;;;11.48;;
65275;SDS011;51875;49.994;14.052;2023-04-07T05:08:18;21.02;;;10.98;;
65275;SDS011;51875;49.994;14.052;2023-04-07T05:09:33;22.58;;;11.50;;
65275;SDS011;51875;49.994;14.052;2023-04-07T05:10:49;20.17;;;11.10;;
65275;SDS011;51875;49.994;14.052;2023-04-07T05:12:05;20.58;;;11.50;;
65275;SDS011;51875;49.994;14.052;2023-04-07T05:13:21;19.90;;;11.15;;
65275;SDS011;51875;49.994;14.052;2023-04-07T05:14:37;19.02;;;10.85;;
65275;SDS011;51875;49.994;14.052;2023-04-07T05:15:52;19.85;;;10.88;;
65275;SDS011;51875;49.994;14.052;2023-04-07T05:17:08;23.25;;;12.07;;
65275;SDS011;51875;49.994;14.052;2023-04-07T05:18:24;20.10;;;11.52;;
65275;SDS011;51875;49.994;14.052;2023-04-07T05:19:40;24.58;;;11.98;;
65275;SDS011;51875;49.994;14.052;2023-04-07T05:20:55;22.88;;;11.90;;
65275;SDS011;51875;49.994;14.052;2023-04-07T05:22:11;18.40;;;10.95;;
65275;SDS011;51875;49.994;14.052;2023-04-07T05:23:26;18.70;;;10.85;;
65275;SDS011;51875;49.994;14.052;2023-04-07T05:24:42;21.92;;;11.63;;
65275;SDS011;51875;49.994;14.052;2023-04-07T05:25:58;20.77;;;11.60;;
65275;SDS011;51875;49.994;14.052;2023-04-07T05:27:13;23.95;;;12.57;;
65275;SDS011;51875;49.994;14.052;2023-04-07T05:28:29;28.83;;;13.10;;
65275;SDS011;51875;49.994;14.052;2023-04-07T05:29:44;25.25;;;12.32;;
65275;SDS011;51875;49.994;14.052;2023-04-07T05:31:00;21.17;;;10.60;;
65275;SDS011;51875;49.994;14.052;2023-04-07T05:32:17;19.35;;;11.15;;
65275;SDS011;51875;49.994;14.052;2023-04-07T05:33:33;18.90;;;10.05;;
65275;SDS011;51875;49.994;14.052;2023-04-07T05:34:49;21.55;;;9.90;;
65275;SDS011;51875;49.994;14.052;2023-04-07T05:36:05;22.45;;;10.50;;
65275;SDS011;51875;49.994;14.052;2023-04-07T05:37:21;19.35;;;10.90;;
65275;SDS011;51875;49.994;14.052;2023-04-07T05:38:37;22.27;;;12.07;;
65275;SDS011;51875;49.994;14.052;2023-04-07T05:39:52;21.13;;;10.80;;
65275;SDS011;51875;49.994;14.052;2023-04-07T05:41:08;21.55;;;11.88;;
65275;SDS011;51875;49.994;14.052;2023-04-07T05:42:24;22.77;;;11.63;;
65275;SDS011;51875;49.994;14.052;2023-04-07T05:43:40;26.23;;;11.50;;
65275;SDS011;51875;49.994;14.052;2023-04-07T05:44:56;20.73;;;11.18;;
65275;SDS011;51875;49.994;14.052;2023-04-07T05:46:15;21.30;;;11.32;;
65275;SDS011;51875;49.994;14.052;2023-04-07T05:47:31;23.55;;;11.77;;
65275;SDS011;51875;49.994;14.052;2023-04-07T05:48:46;20.40;;;11.73;;
65275;SDS011;51875;49.994;14.052;2023-04-07T05:50:02;23.15;;;11.98;;
65275;SDS011;51875;49.994;14.052;2023-04-07T05:51:17;20.08;;;11.75;;
65275;SDS011;51875;49.994;14.052;2023-04-07T05:52:33;19.25;;;10.38;;
65275;SDS011;51875;49.994;14.052;2023-04-07T05:53:49;16.00;;;9.27;;
65275;SDS011;51875;49.994;14.052;2023-04-07T05:55:05;16.08;;;9.30;;
65275;SDS011;51875;49.994;14.052;2023-04-07T05:56:21;17.90;;;9.50;;
65275;SDS011;51875;49.994;14.052;2023-04-07T05:57:36;20.52;;;9.88;;
65275;SDS011;51875;49.994;14.052;2023-04-07T05:58:54;22.38;;;10.65;;
65275;SDS011;51875;49.994;14.052;2023-04-07T06:00:11;17.95;;;9.93;;
65275;SDS011;51875;49.994;14.052;2023-04-07T06:01:28;19.60;;;10.45;;
65275;SDS011;51875;49.994;14.052;2023-04-07T06:02:43;19.17;;;10.75;;
65275;SDS011;51875;49.994;14.052;2023-04-07T06:03:59;16.75;;;10.30;;
65275;SDS011;51875;49.994;14.052;2023-04-07T06:05:17;18.70;;;11.23;;
65275;SDS011;51875;49.994;14.052;2023-04-07T06:06:33;22.27;;;10.13;;
65275;SDS011;51875;49.994;14.052;2023-04-07T06:07:48;21.15;;;10.95;;
65275;SDS011;51875;49.994;14.052;2023-04-07T06:09:04;20.77;;;10.60;;
65275;SDS011;51875;49.994;14.052;2023-04-07T06:10:19;18.38;;;10.85;;
65275;SDS011;51875;49.994;14.052;2023-04-07T06:11:35;19.02;;;10.85;;
65275;SDS011;51875;49.994;14.052;2023-04-07T06:12:51;18.98;;;9.68;;
65275;SDS011;51875;49.994;14.052;2023-04-07T06:14:06;17.65;;;10.45;;
65275;SDS011;51875;49.994;14.052;2023-04-07T06:15:22;21.30;;;11.13;;
65275;SDS011;51875;49.994;14.052;2023-04-07T06:16:38;20.45;;;11.38;;
65275;SDS011;51875;49.994;14.052;2023-04-07T06:17:53;17.50;;;10.45;;
65275;SDS011;51875;49.994;14.052;2023-04-07T06:19:09;21.55;;;10.32;;
65275;SDS011;51875;49.994;14.052;2023-04-07T06:20:25;17.45;;;10.15;;
65275;SDS011;51875;49.994;14.052;2023-04-07T06:21:41;19.63;;;10.93;;
65275;SDS011;51875;49.994;14.052;2023-04-07T06:22:57;17.73;;;9.95;;
65275;SDS011;51875;49.994;14.052;2023-04-07T06:24:13;20.98;;;11.48;;
65275;SDS011;51875;49.994;14.052;2023-04-07T06:25:28;22.00;;;11.52;;
65275;SDS011;51875;49.994;14.052;2023-04-07T06:26:44;20.75;;;10.48;;
65275;SDS011;51875;49.994;14.052;2023-04-07T06:28:00;19.13;;;10.98;;
65275;SDS011;51875;49.994;14.052;2023-04-07T06:29:16;20.40;;;10.02;;
65275;SDS011;51875;49.994;14.052;2023-04-07T06:30:31;21.35;;;11.52;;
65275;SDS011;51875;49.994;14.052;2023-04-07T06:31:48;18.95;;;10.77;;
65275;SDS011;51875;49.994;14.052;2023-04-07T06:33:04;18.25;;;11.35;;
65275;SDS011;51875;49.994;14.052;2023-04-07T06:34:20;19.00;;;10.90;;
65275;SDS011;51875;49.994;14.052;2023-04-07T06:35:36;16.60;;;9.05;;
65275;SDS011;51875;49.994;14.052;2023-04-07T06:36:53;20.60;;;10.82;;
65275;SDS011;51875;49.994;14.052;2023-04-07T06:38:09;24.02;;;11.70;;
65275;SDS011;51875;49.994;14.052;2023-04-07T06:39:25;15.63;;;9.52;;
65275;SDS011;51875;49.994;14.052;2023-04-07T06:40:41;14.05;;;8.00;;
65275;SDS011;51875;49.994;14.052;2023-04-07T06:41:57;18.33;;;10.70;;
65275;SDS011;51875;49.994;14.052;2023-04-07T06:43:12;16.98;;;10.00;;
65275;SDS011;51875;49.994;14.052;2023-04-07T06:44:28;19.40;;;10.68;;
65275;SDS011;51875;49.994;14.052;2023-04-07T06:45:43;17.02;;;10.73;;
65275;SDS011;51875;49.994;14.052;2023-04-07T06:46:59;16.33;;;10.27;;
65275;SDS011;51875;49.994;14.052;2023-04-07T06:48:15;20.23;;;11.20;;
65275;SDS011;51875;49.994;14.052;2023-04-07T06:49:30;17.55;;;9.82;;
65275;SDS011;51875;49.994;14.052;2023-04-07T06:50:47;18.67;;;10.63;;
65275;SDS011;51875;49.994;14.052;2023-04-07T06:52:04;21.92;;;11.15;;
65275;SDS011;51875;49.994;14.052;2023-04-07T06:53:20;21.23;;;10.90;;
65275;SDS011;51875;49.994;14.052;2023-04-07T06:54:35;19.60;;;10.75;;
65275;SDS011;51875;49.994;14.052;2023-04-07T06:56:01;19.20;;;10.23;;
65275;SDS011;51875;49.994;14.052;2023-04-07T06:57:23;16.08;;;9.65;;
65275;SDS011;51875;49.994;14.052;2023-04-07T06:58:39;15.95;;;8.90;;
65275;SDS011;51875;49.994;14.052;2023-04-07T06:59:55;17.77;;;10.35;;
65275;SDS011;51875;49.994;14.052;2023-04-07T07:01:10;17.33;;;9.55;;
65275;SDS011;51875;49.994;14.052;2023-04-07T07:02:26;19.73;;;10.15;;
65275;SDS011;51875;49.994;14.052;2023-04-07T07:03:42;17.58;;;9.85;;
65275;SDS011;51875;49.994;14.052;2023-04-07T07:04:57;17.90;;;10.23;;
65275;SDS011;51875;49.994;14.052;2023-04-07T07:06:13;20.52;;;11.50;;
65275;SDS011;51875;49.994;14.052;2023-04-07T07:07:29;16.63;;;10.10;;
65275;SDS011;51875;49.994;14.052;2023-04-07T07:08:45;19.83;;;11.45;;
65275;SDS011;51875;49.994;14.052;2023-04-07T07:10:00;21.67;;;11.15;;
65275;SDS011;51875;49.994;14.052;2023-04-07T07:11:16;19.23;;;9.98;;
65275;SDS011;51875;49.994;14.052;2023-04-07T07:12:32;18.65;;;10.30;;
65275;SDS011;51875;49.994;14.052;2023-04-07T07:13:47;18.73;;;10.80;;
65275;SDS011;51875;49.994;14.052;2023-04-07T07:15:03;16.23;;;9.63;;
65275;SDS011;51875;49.994;14.052;2023-04-07T07:16:19;18.52;;;10.95;;
65275;SDS011;51875;49.994;14.052;2023-04-07T07:17:37;19.60;;;10.80;;
65275;SDS011;51875;49.994;14.052;2023-04-07T07:18:53;18.90;;;10.52;;
65275;SDS011;51875;49.994;14.052;2023-04-07T07:20:09;17.95;;;11.13;;
65275;SDS011;51875;49.994;14.052;2023-04-07T07:21:25;17.50;;;10.70;;
65275;SDS011;51875;49.994;14.052;2023-04-07T07:22:41;24.15;;;10.43;;
65275;SDS011;51875;49.994;14.052;2023-04-07T07:23:56;19.95;;;10.80;;
65275;SDS011;51875;49.994;14.052;2023-04-07T07:25:12;17.85;;;10.43;;
65275;SDS011;51875;49.994;14.052;2023-04-07T07:26:27;19.40;;;10.88;;
65275;SDS011;51875;49.994;14.052;2023-04-07T07:27:43;20.83;;;10.65;;
65275;SDS011;51875;49.994;14.052;2023-04-07T07:28:59;18.92;;;10.65;;